createdAt,value
2019-02-02T00:01:41.465Z,48.20
2019-02-02T00:04:10.670Z,50.53
2019-02-02T00:06:39.569Z,49.43
2019-02-02T00:09:09.657Z,51.53
2019-02-02T00:11:38.854Z,56.00
2019-02-02T00:14:08.270Z,71.67
2019-02-02T00:16:37.403Z,57.80
2019-02-02T00:19:06.504Z,51.87
2019-02-02T00:21:35.593Z,56.10
2019-02-02T00:24:04.891Z,54.67
2019-02-02T00:26:33.976Z,50.87
2019-02-02T00:29:02.930Z,57.10
2019-02-02T00:31:33.176Z,57.33
2019-02-02T00:34:02.059Z,59.17
2019-02-02T00:36:32.214Z,55.30
2019-02-02T00:39:01.249Z,56.93
2019-02-02T00:41:30.207Z,56.60
2019-02-02T00:43:59.276Z,56.47
2019-02-02T00:46:28.268Z,59.53
2019-02-02T00:48:57.225Z,57.07
2019-02-02T00:51:26.319Z,67.53
2019-02-02T00:53:55.686Z,62.43
2019-02-02T00:56:24.812Z,60.03
2019-02-02T00:58:53.726Z,65.57
2019-02-02T01:01:22.835Z,60.87
2019-02-02T01:03:51.913Z,63.20
2019-02-02T01:06:20.980Z,65.17
2019-02-02T01:08:50.014Z,66.70
2019-02-02T01:11:19.029Z,66.43
2019-02-02T01:13:47.989Z,66.67
2019-02-02T01:16:17.081Z,67.30
2019-02-02T01:18:46.135Z,66.63
2019-02-02T01:21:15.244Z,68.00
2019-02-02T01:23:44.382Z,69.00
2019-02-02T01:26:13.389Z,72.47
2019-02-02T01:28:42.767Z,69.77
2019-02-02T01:31:11.771Z,72.60
2019-02-02T01:33:40.731Z,74.63
2019-02-02T01:36:09.810Z,74.83
2019-02-02T01:38:38.916Z,71.77
2019-02-02T01:41:08.274Z,72.40
2019-02-02T01:43:37.318Z,102.00
2019-02-02T01:46:06.547Z,71.20
2019-02-02T01:48:35.595Z,73.57
2019-02-02T01:51:04.879Z,75.97
2019-02-02T01:53:33.803Z,72.83
2019-02-02T01:56:02.655Z,72.97
2019-02-02T01:58:32.053Z,73.63
2019-02-02T02:01:01.296Z,73.87
2019-02-02T02:03:30.153Z,74.40
2019-02-02T02:05:59.289Z,76.17
2019-02-02T02:08:28.376Z,72.20
2019-02-02T02:10:58.299Z,72.77
2019-02-02T02:13:27.676Z,83.40
2019-02-02T02:15:56.692Z,74.73
2019-02-02T02:18:25.631Z,72.17
2019-02-02T02:20:54.643Z,76.73
2019-02-02T02:23:26.186Z,86.27
2019-02-02T02:25:55.482Z,80.47
2019-02-02T02:28:28.308Z,74.80
2019-02-02T02:30:54.953Z,82.17
2019-02-02T02:33:24.204Z,73.70
2019-02-02T02:35:53.386Z,77.17
2019-02-02T02:38:22.346Z,85.63
2019-02-02T02:40:51.279Z,81.20
2019-02-02T02:43:20.155Z,80.20
2019-02-02T02:45:49.024Z,76.03
2019-02-02T02:48:17.907Z,81.57
2019-02-02T02:50:46.920Z,91.87
2019-02-02T02:53:15.860Z,86.63
2019-02-02T02:55:44.853Z,88.13
2019-02-02T02:58:13.844Z,84.30
2019-02-02T03:00:42.717Z,87.60
2019-02-02T03:03:11.652Z,87.77
2019-02-02T03:05:40.550Z,80.47
2019-02-02T03:08:09.616Z,84.87
2019-02-02T03:10:38.572Z,88.57
2019-02-02T03:13:10.307Z,87.47
2019-02-02T03:15:39.426Z,91.27
2019-02-02T03:18:08.594Z,82.87
2019-02-02T03:20:37.928Z,89.13
2019-02-02T03:23:06.927Z,89.63
2019-02-02T03:25:35.910Z,89.50
2019-02-02T03:28:06.978Z,96.63
2019-02-02T03:30:35.992Z,88.40
2019-02-02T03:33:05.075Z,93.70
2019-02-02T03:35:34.013Z,93.87
2019-02-02T03:38:02.868Z,91.50
2019-02-02T03:40:31.910Z,98.43
2019-02-02T03:43:00.864Z,92.47
2019-02-02T03:45:30.087Z,96.37
2019-02-02T03:47:59.033Z,102.77
2019-02-02T03:50:28.145Z,94.13
2019-02-02T03:52:57.395Z,98.20
2019-02-02T03:55:26.595Z,94.30
2019-02-02T03:57:55.565Z,99.40
2019-02-02T04:00:24.629Z,94.43
2019-02-02T04:02:53.632Z,98.77
2019-02-02T04:05:25.335Z,101.47
2019-02-02T04:07:54.260Z,97.63
2019-02-02T04:10:23.528Z,100.90
2019-02-02T04:12:52.604Z,95.93
2019-02-02T04:15:21.960Z,96.07
2019-02-02T04:17:51.085Z,99.73
2019-02-02T04:20:21.890Z,97.67
2019-02-02T04:22:51.412Z,98.80
2019-02-02T04:25:21.718Z,96.70
2019-02-02T04:27:50.901Z,102.97
2019-02-02T04:30:22.111Z,99.27
2019-02-02T04:32:51.536Z,98.77
2019-02-02T04:35:20.646Z,101.43
2019-02-02T04:37:49.598Z,99.80
2019-02-02T04:40:18.663Z,103.13
2019-02-02T04:42:47.729Z,102.43
2019-02-02T04:45:16.898Z,102.77
2019-02-02T04:47:46.146Z,105.27
2019-02-02T04:50:16.403Z,101.77
2019-02-02T04:52:45.549Z,109.63
2019-02-02T04:55:15.999Z,104.80
2019-02-02T04:57:45.039Z,95.37
2019-02-02T05:00:20.181Z,99.67
2019-02-02T05:02:49.407Z,98.67
2019-02-02T05:05:18.783Z,94.70
2019-02-02T05:07:47.900Z,99.40
2019-02-02T05:10:18.732Z,106.13
2019-02-02T05:12:48.467Z,103.03
2019-02-02T05:15:17.421Z,94.43
2019-02-02T05:17:46.479Z,104.10
2019-02-02T05:20:15.992Z,107.17
2019-02-02T05:22:45.072Z,97.97
2019-02-02T05:25:14.557Z,106.80
2019-02-02T05:27:44.683Z,101.80
2019-02-02T05:30:16.655Z,97.70
2019-02-02T05:32:45.950Z,105.47
2019-02-02T05:35:14.976Z,96.73
2019-02-02T05:37:44.825Z,102.37
2019-02-02T05:40:15.353Z,95.63
2019-02-02T05:42:44.413Z,92.77
2019-02-02T05:45:15.422Z,101.70
2019-02-02T05:47:44.397Z,105.70
2019-02-02T05:50:15.077Z,103.13
2019-02-02T05:52:44.174Z,97.87
2019-02-02T05:55:14.162Z,101.47
2019-02-02T05:57:43.224Z,95.40
2019-02-02T06:00:17.429Z,94.57
2019-02-02T06:02:46.508Z,87.60
2019-02-02T06:05:15.509Z,94.90
2019-02-02T06:07:44.658Z,100.97
2019-02-02T06:10:14.952Z,101.87
2019-02-02T06:12:43.993Z,92.33
2019-02-02T06:15:13.500Z,93.57
2019-02-02T06:17:42.571Z,97.80
2019-02-02T06:20:12.018Z,93.27
2019-02-02T06:22:40.969Z,97.10
2019-02-02T06:25:11.169Z,97.30
2019-02-02T06:27:40.443Z,99.93
2019-02-02T06:30:12.912Z,103.13
2019-02-02T06:32:41.915Z,93.17
2019-02-02T06:35:12.559Z,93.30
2019-02-02T06:37:41.653Z,97.97
2019-02-02T06:40:11.856Z,93.00
2019-02-02T06:42:41.005Z,107.20
2019-02-02T06:45:13.558Z,108.03
2019-02-02T06:47:42.582Z,94.77
2019-02-02T06:50:13.764Z,102.27
2019-02-02T06:52:42.739Z,99.07
2019-02-02T06:55:12.348Z,92.90
2019-02-02T06:57:41.681Z,95.00
2019-02-02T07:00:16.234Z,99.87
2019-02-02T07:02:44.629Z,100.53
2019-02-02T07:05:13.983Z,98.73
2019-02-02T07:07:43.133Z,97.13
2019-02-02T07:10:15.425Z,104.90
2019-02-02T07:12:44.408Z,89.90
2019-02-02T07:15:14.309Z,99.13
2019-02-02T07:17:43.245Z,101.67
2019-02-02T07:20:13.203Z,97.23
2019-02-02T07:22:42.537Z,102.80
2019-02-02T07:25:11.655Z,102.73
2019-02-02T07:27:41.059Z,123.93
2019-02-02T07:30:13.821Z,131.63
2019-02-02T07:32:43.055Z,104.63
2019-02-02T07:35:12.179Z,105.97
2019-02-02T07:37:41.138Z,112.13
2019-02-02T07:40:12.503Z,115.00
2019-02-02T07:42:41.693Z,102.80
2019-02-02T07:45:16.612Z,110.67
2019-02-02T07:47:45.858Z,106.37
2019-02-02T07:50:15.796Z,100.90
2019-02-02T07:52:45.051Z,102.57
2019-02-02T07:55:15.505Z,105.13
2019-02-02T07:57:44.578Z,99.20
2019-02-02T08:00:43.605Z,109.90
2019-02-02T08:03:13.291Z,106.53
2019-02-02T08:05:42.360Z,109.23
2019-02-02T08:08:11.394Z,111.80
2019-02-02T08:10:40.598Z,106.27
2019-02-02T08:13:09.688Z,104.10
2019-02-02T08:15:41.670Z,102.77
2019-02-02T08:18:10.801Z,102.17
2019-02-02T08:20:39.696Z,110.93
2019-02-02T08:23:09.065Z,105.93
2019-02-02T08:25:38.199Z,103.37
2019-02-02T08:28:07.430Z,106.53
2019-02-02T08:30:37.189Z,106.90
2019-02-02T08:33:06.848Z,95.83
2019-02-02T08:35:35.988Z,108.67
2019-02-02T08:38:05.358Z,107.80
2019-02-02T08:40:34.422Z,121.17
2019-02-02T08:43:03.673Z,108.77
2019-02-02T08:45:32.835Z,104.33
2019-02-02T08:48:02.221Z,99.97
2019-02-02T08:50:33.573Z,123.90
2019-02-02T08:53:02.778Z,107.43
2019-02-02T08:55:32.015Z,98.63
2019-02-02T08:58:01.304Z,101.10
2019-02-02T09:00:30.280Z,106.17
2019-02-02T09:02:59.425Z,108.13
2019-02-02T09:05:28.524Z,115.17
2019-02-02T09:07:58.018Z,104.17
2019-02-02T09:10:28.323Z,107.33
2019-02-02T09:12:58.058Z,104.47
2019-02-02T09:15:27.697Z,101.37
2019-02-02T09:17:56.972Z,107.03
2019-02-02T09:20:26.051Z,112.57
2019-02-02T09:23:05.927Z,105.93
2019-02-02T09:25:27.781Z,110.53
2019-02-02T09:27:56.942Z,112.03
2019-02-02T09:30:28.368Z,108.77
2019-02-02T09:32:57.562Z,107.13
2019-02-02T09:35:27.041Z,104.77
2019-02-02T09:37:56.610Z,110.30
2019-02-02T09:40:25.920Z,104.77
2019-02-02T09:42:55.197Z,108.03
2019-02-02T09:45:24.640Z,113.50
2019-02-02T09:47:53.801Z,119.63
2019-02-02T09:50:23.998Z,120.47
2019-02-02T09:52:53.061Z,113.50
2019-02-02T09:55:23.379Z,114.37
2019-02-02T09:57:55.184Z,105.13
2019-02-02T10:00:27.075Z,109.33
2019-02-02T10:02:56.833Z,108.67
2019-02-02T10:05:26.107Z,115.20
2019-02-02T10:07:55.325Z,114.70
2019-02-02T10:10:26.360Z,103.37
2019-02-02T10:12:55.372Z,112.53
2019-02-02T10:15:24.501Z,100.67
2019-02-02T10:17:53.646Z,111.23
2019-02-02T10:20:24.531Z,105.07
2019-02-02T10:22:53.680Z,106.17
2019-02-02T10:25:24.750Z,110.70
2019-02-02T10:27:53.758Z,116.57
2019-02-02T10:30:48.381Z,104.97
2019-02-02T10:33:17.616Z,109.40
2019-02-02T10:35:46.834Z,112.70
2019-02-02T10:38:16.501Z,115.93
2019-02-02T10:40:45.643Z,114.67
2019-02-02T10:43:14.740Z,114.80
2019-02-02T10:45:43.824Z,116.80
2019-02-02T10:48:12.990Z,110.50
2019-02-02T10:50:41.982Z,120.10
2019-02-02T10:53:11.049Z,117.87
2019-02-02T10:55:40.195Z,119.43
2019-02-02T10:58:09.428Z,150.00
2019-02-02T11:00:40.057Z,120.03
2019-02-02T11:03:09.213Z,135.67
2019-02-02T11:05:38.443Z,124.70
2019-02-02T11:08:07.764Z,125.13
2019-02-02T11:10:36.934Z,131.80
2019-02-02T11:13:06.779Z,117.93
2019-02-02T11:15:36.128Z,109.37
2019-02-02T11:18:06.604Z,115.60
2019-02-02T11:20:36.053Z,113.80
2019-02-02T11:23:05.985Z,124.07
2019-02-02T11:25:35.829Z,122.17
2019-02-02T11:28:05.369Z,126.27
2019-02-02T11:30:36.362Z,113.67
2019-02-02T11:33:05.996Z,113.70
2019-02-02T11:35:35.107Z,121.80
2019-02-02T11:38:04.824Z,122.50
2019-02-02T11:40:34.414Z,108.37
2019-02-02T11:43:04.107Z,116.73
2019-02-02T11:45:33.356Z,122.53
2019-02-02T11:48:02.561Z,124.40
2019-02-02T11:50:31.615Z,118.83
2019-02-02T11:53:00.570Z,115.77
2019-02-02T11:55:29.742Z,118.37
2019-02-02T11:57:58.639Z,122.03
2019-02-02T12:00:34.107Z,112.23
2019-02-02T12:03:05.406Z,129.87
2019-02-02T12:05:34.488Z,129.70
2019-02-02T12:08:03.705Z,123.23
2019-02-02T12:10:32.921Z,118.77
2019-02-02T12:13:06.259Z,118.07
2019-02-02T12:15:35.540Z,115.23
2019-02-02T12:18:04.785Z,125.80
2019-02-02T12:20:33.994Z,131.63
2019-02-02T12:23:03.300Z,127.70
2019-02-02T12:25:32.345Z,123.80
2019-02-02T12:28:01.393Z,145.47
2019-02-02T12:30:34.658Z,134.10
2019-02-02T12:33:06.544Z,131.47
2019-02-02T12:35:36.052Z,138.87
2019-02-02T12:38:05.324Z,134.83
2019-02-02T12:40:35.308Z,136.43
2019-02-02T12:43:04.726Z,125.30
2019-02-02T12:45:42.661Z,123.63
2019-02-02T12:48:11.808Z,131.27
2019-02-02T12:50:41.449Z,137.40
2019-02-02T12:53:10.433Z,142.53
2019-02-02T12:55:39.469Z,135.83
2019-02-02T12:58:08.560Z,131.63
2019-02-02T13:00:37.695Z,132.13
2019-02-02T13:03:07.739Z,129.00
2019-02-02T13:05:39.004Z,136.70
2019-02-02T13:08:07.999Z,129.20
2019-02-02T13:10:37.411Z,138.43
2019-02-02T13:13:06.703Z,133.23
2019-02-02T13:15:35.871Z,138.57
2019-02-02T13:18:05.215Z,134.63
2019-02-02T13:20:34.325Z,134.03
2019-02-02T13:23:03.305Z,130.87
2019-02-02T13:25:32.451Z,130.47
2019-02-02T13:28:01.576Z,122.93
2019-02-02T13:30:32.995Z,127.93
2019-02-02T13:33:02.120Z,127.10
2019-02-02T13:35:33.017Z,133.23
2019-02-02T13:38:02.186Z,124.60
2019-02-02T13:40:31.399Z,112.07
2019-02-02T13:43:00.832Z,115.80
2019-02-02T13:45:29.856Z,115.67
2019-02-02T13:47:59.028Z,112.80
2019-02-02T13:50:28.125Z,103.03
2019-02-02T13:53:00.676Z,96.17
2019-02-02T13:55:29.977Z,89.70
2019-02-02T13:57:59.081Z,95.83
2019-02-02T14:00:29.926Z,87.80
2019-02-02T14:03:03.692Z,76.27
2019-02-02T14:05:30.161Z,83.40
2019-02-02T14:08:00.292Z,78.10
2019-02-02T14:10:31.113Z,77.13
2019-02-02T14:13:01.135Z,79.40
2019-02-02T14:15:30.283Z,68.53
2019-02-02T14:17:59.336Z,72.67
2019-02-02T14:20:28.330Z,72.57
2019-02-02T14:22:57.413Z,73.60
2019-02-02T14:25:26.548Z,74.00
2019-02-02T14:27:55.569Z,84.17
2019-02-02T14:30:25.835Z,74.80
2019-02-02T14:32:55.390Z,69.27
2019-02-02T14:35:26.548Z,71.50
2019-02-02T14:37:56.334Z,66.17
2019-02-02T14:40:25.434Z,66.33
2019-02-02T14:42:54.510Z,72.40
2019-02-02T14:45:27.294Z,67.87
2019-02-02T14:47:55.778Z,67.33
2019-02-02T14:50:26.235Z,68.23
2019-02-02T14:52:55.368Z,66.63
2019-02-02T14:55:26.659Z,71.83
2019-02-02T14:57:56.122Z,66.73
2019-02-02T15:00:27.141Z,71.53
2019-02-02T15:02:56.269Z,70.87
2019-02-02T15:05:25.333Z,77.17
2019-02-02T15:07:54.669Z,78.80
2019-02-02T15:10:24.612Z,79.00
2019-02-02T15:12:53.924Z,91.77
2019-02-02T15:15:23.169Z,96.50
2019-02-02T15:17:52.265Z,96.77
2019-02-02T15:20:24.004Z,98.57
2019-02-02T15:22:53.228Z,111.97
2019-02-02T15:25:22.235Z,101.93
2019-02-02T15:27:51.215Z,99.07
2019-02-02T15:30:21.940Z,111.47
2019-02-02T15:32:51.078Z,97.83
2019-02-02T15:35:20.134Z,89.57
2019-02-02T15:37:49.181Z,96.27
2019-02-02T15:40:19.174Z,91.80
2019-02-02T15:42:48.433Z,100.50
2019-02-02T15:45:19.725Z,94.43
2019-02-02T15:47:48.669Z,89.70
2019-02-02T15:50:18.180Z,88.13
2019-02-02T15:52:47.517Z,91.77
2019-02-02T15:55:18.909Z,94.27
2019-02-02T15:57:48.021Z,90.03
2019-02-02T16:00:22.629Z,92.60
2019-02-02T16:02:51.693Z,78.90
2019-02-02T16:05:20.862Z,101.00
2019-02-02T16:07:50.009Z,84.00
2019-02-02T16:10:21.163Z,84.73
2019-02-02T16:12:50.283Z,83.63
2019-02-02T16:15:19.298Z,87.13
2019-02-02T16:17:48.520Z,84.87
2019-02-02T16:20:19.713Z,77.70
2019-02-02T16:22:48.854Z,74.83
2019-02-02T16:25:18.050Z,78.37
2019-02-02T16:27:47.164Z,78.17
2019-02-02T16:30:20.450Z,71.90
2019-02-02T16:32:51.774Z,71.73
2019-02-02T16:35:20.839Z,72.77
2019-02-02T16:37:49.767Z,77.80
2019-02-02T16:40:20.865Z,76.10
2019-02-02T16:42:53.354Z,73.90
2019-02-02T16:45:23.665Z,74.67
2019-02-02T16:47:54.514Z,73.20
2019-02-02T16:50:24.585Z,71.53
2019-02-02T16:52:53.756Z,76.10
2019-02-02T16:55:22.895Z,69.57
2019-02-02T16:57:52.010Z,65.80
2019-02-02T17:00:27.015Z,70.07
2019-02-02T17:02:58.503Z,72.00
2019-02-02T17:05:27.596Z,70.63
2019-02-02T17:07:56.712Z,77.57
2019-02-02T17:10:30.715Z,74.93
2019-02-02T17:13:00.126Z,71.13
2019-02-02T17:15:29.258Z,74.90
2019-02-02T17:17:58.444Z,74.47
2019-02-02T17:20:30.380Z,78.27
2019-02-02T17:22:59.801Z,82.23
2019-02-02T17:25:28.965Z,85.37
2019-02-02T17:27:58.113Z,78.83
2019-02-02T17:30:27.836Z,83.97
2019-02-02T17:32:58.715Z,83.87
2019-02-02T17:35:27.786Z,91.63
2019-02-02T17:37:56.839Z,87.13
2019-02-02T17:40:27.333Z,82.53
2019-02-02T17:42:56.906Z,80.03
2019-02-02T17:45:25.943Z,84.37
2019-02-02T17:47:55.130Z,80.30
2019-02-02T17:50:25.040Z,76.23
2019-02-02T17:52:54.251Z,74.57
2019-02-02T17:55:23.432Z,79.63
2019-02-02T17:57:52.501Z,72.87
2019-02-02T18:00:28.986Z,75.07
2019-02-02T18:02:57.960Z,78.83
2019-02-02T18:05:26.854Z,72.70
2019-02-02T18:07:56.060Z,73.20
2019-02-02T18:10:25.227Z,72.03
2019-02-02T18:12:54.266Z,77.27
2019-02-02T18:15:23.268Z,74.87
2019-02-02T18:17:52.520Z,71.50
2019-02-02T18:20:21.528Z,69.80
2019-02-02T18:22:50.465Z,71.47
2019-02-02T18:25:19.832Z,72.23
2019-02-02T18:27:49.050Z,66.67
2019-02-02T18:30:19.340Z,67.43
2019-02-02T18:32:49.674Z,72.80
2019-02-02T18:35:18.929Z,67.00
2019-02-02T18:37:48.130Z,67.80
2019-02-02T18:40:18.194Z,66.13
2019-02-02T18:42:47.207Z,72.97
2019-02-02T18:45:21.572Z,66.57
2019-02-02T18:47:51.525Z,63.63
2019-02-02T18:50:20.716Z,68.30
2019-02-02T18:52:50.064Z,65.50
2019-02-02T18:55:21.903Z,65.03
2019-02-02T18:57:51.159Z,62.83
2019-02-02T19:00:20.952Z,60.33
2019-02-02T19:02:50.205Z,62.70
2019-02-02T19:05:19.250Z,61.83
2019-02-02T19:07:48.709Z,67.20
2019-02-02T19:10:21.143Z,63.53
2019-02-02T19:12:50.546Z,64.43
2019-02-02T19:15:19.768Z,63.07
2019-02-02T19:17:48.822Z,60.07
2019-02-02T19:20:19.510Z,60.90
2019-02-02T19:22:48.887Z,54.90
2019-02-02T19:25:18.537Z,58.87
2019-02-02T19:27:47.867Z,60.50
2019-02-02T19:30:21.338Z,55.87
2019-02-02T19:32:50.509Z,62.73
2019-02-02T19:35:19.621Z,61.97
2019-02-02T19:37:50.120Z,60.57
2019-02-02T19:40:19.137Z,61.13
2019-02-02T19:42:48.186Z,63.13
2019-02-02T19:45:19.059Z,61.00
2019-02-02T19:47:48.396Z,58.10
2019-02-02T19:50:21.226Z,62.83
2019-02-02T19:52:50.834Z,64.33
2019-02-02T19:55:20.795Z,63.37
2019-02-02T19:57:50.522Z,66.27
2019-02-02T20:00:28.259Z,63.10
2019-02-02T20:02:57.382Z,63.13
2019-02-02T20:05:29.094Z,67.20
2019-02-02T20:07:57.473Z,65.37
2019-02-02T20:10:26.673Z,62.83
2019-02-02T20:12:56.283Z,65.33
2019-02-02T20:15:26.148Z,68.43
2019-02-02T20:17:55.284Z,63.90
2019-02-02T20:20:25.539Z,67.20
2019-02-02T20:22:55.529Z,68.93
2019-02-02T20:25:26.401Z,69.80
2019-02-02T20:27:55.518Z,68.57
2019-02-02T20:30:27.751Z,67.30
2019-02-02T20:32:56.985Z,69.03
2019-02-02T20:35:26.789Z,72.73
2019-02-02T20:37:58.599Z,70.37
2019-02-02T20:40:27.793Z,80.13
2019-02-02T20:42:56.943Z,78.40
2019-02-02T20:45:31.205Z,76.70
2019-02-02T20:48:00.586Z,80.73
2019-02-02T20:50:30.928Z,81.63
2019-02-02T20:53:00.232Z,76.93
2019-02-02T20:55:31.958Z,90.67
2019-02-02T20:58:01.731Z,88.73
2019-02-02T21:00:31.112Z,84.73
2019-02-02T21:03:00.211Z,82.37
2019-02-02T21:05:31.754Z,83.57
2019-02-02T21:08:00.652Z,87.07
2019-02-02T21:10:31.151Z,91.67
2019-02-02T21:13:00.416Z,85.50
2019-02-02T21:15:29.878Z,85.50
2019-02-02T21:17:58.971Z,86.73
2019-02-02T21:20:29.126Z,78.93
2019-02-02T21:22:58.322Z,79.03
2019-02-02T21:25:27.917Z,83.73
2019-02-02T21:27:57.283Z,81.03
2019-02-02T21:30:34.169Z,79.80
2019-02-02T21:33:04.178Z,73.70
2019-02-02T21:35:33.371Z,69.67
2019-02-02T21:38:02.663Z,66.17
2019-02-02T21:40:33.325Z,70.63
2019-02-02T21:43:02.626Z,65.77
2019-02-02T21:45:31.798Z,61.43
2019-02-02T21:48:00.861Z,54.80
2019-02-02T21:50:29.934Z,53.07
2019-02-02T21:52:58.964Z,53.57
2019-02-02T21:55:29.239Z,45.83
2019-02-02T21:57:58.483Z,44.70
2019-02-02T22:00:32.948Z,38.67
2019-02-02T22:03:02.169Z,37.37
2019-02-02T22:05:31.904Z,35.13
2019-02-02T22:08:01.064Z,41.80
2019-02-02T22:10:30.618Z,34.57
2019-02-02T22:13:00.107Z,34.30
2019-02-02T22:15:30.252Z,33.00
2019-02-02T22:17:59.366Z,30.63
2019-02-02T22:20:28.605Z,31.00
2019-02-02T22:22:57.680Z,31.40
2019-02-02T22:25:28.676Z,31.20
2019-02-02T22:27:57.813Z,31.40
2019-02-02T22:30:31.703Z,27.53
2019-02-02T22:33:00.929Z,28.87
2019-02-02T22:35:29.961Z,32.63
2019-02-02T22:37:59.509Z,28.93
2019-02-02T22:40:29.074Z,27.90
2019-02-02T22:42:58.152Z,29.13
2019-02-02T22:45:27.337Z,27.80
2019-02-02T22:47:56.674Z,27.43
2019-02-02T22:50:26.920Z,28.43
2019-02-02T22:52:56.653Z,27.33
2019-02-02T22:55:26.057Z,28.23
2019-02-02T22:57:55.224Z,29.00
2019-02-02T23:00:55.986Z,29.70
2019-02-02T23:04:02.415Z,30.93
2019-02-02T23:06:42.569Z,29.43
2019-02-02T23:09:51.087Z,31.17
2019-02-02T23:12:29.813Z,33.43
2019-02-02T23:15:55.216Z,33.13
2019-02-02T23:18:24.500Z,35.77
2019-02-02T23:20:56.702Z,38.80
2019-02-02T23:23:26.190Z,35.83
2019-02-02T23:25:55.234Z,38.83
2019-02-02T23:28:24.404Z,38.10
2019-02-02T23:30:55.483Z,34.60
2019-02-02T23:33:24.037Z,35.50
2019-02-02T23:35:53.082Z,29.63
2019-02-02T23:38:22.238Z,27.53
2019-02-02T23:40:51.271Z,28.50
2019-02-02T23:43:20.484Z,24.83
2019-02-02T23:45:49.406Z,25.83
2019-02-02T23:48:18.530Z,26.40
2019-02-02T23:50:47.932Z,25.97
2019-02-02T23:53:19.352Z,26.87
2019-02-02T23:55:49.452Z,27.10
2019-02-02T23:58:18.672Z,28.00
